Time;durP1;ratioP1;P1;durP2;ratioP2;P2;SDS_P1;SDS_P2;PMS_P1;PMS_P2;Temp;Humidity;BMP_temperature;BMP_pressure;BME280_temperature;BME280_humidity;BME280_pressure;Samples;Min_cycle;Max_cycle;Signal;HPM_P1;HPM_P2
2022/04/06 00:01:24;;;;;;;4.85;4.45;;;9.00;99.90;;;;;;4157469;28;20093;-75
2022/04/06 00:03:26;;;;;;;9.13;4.25;;;9.00;99.90;;;;;;4162499;28;20057;-74
2022/04/06 00:05:28;;;;;;;4.50;3.88;;;9.00;99.90;;;;;;4161921;28;20102;-74
2022/04/06 00:07:30;;;;;;;4.68;4.28;;;9.00;99.90;;;;;;4157105;28;20093;-74
2022/04/06 00:09:32;;;;;;;4.97;3.97;;;9.00;99.90;;;;;;4155653;28;20897;-74
2022/04/06 00:11:33;;;;;;;4.88;4.13;;;9.00;99.90;;;;;;4157052;28;20058;-75
2022/04/06 00:13:35;;;;;;;5.15;4.75;;;9.10;99.90;;;;;;4157030;28;20145;-75
2022/04/06 00:15:37;;;;;;;5.78;4.47;;;9.00;99.90;;;;;;4157775;28;20751;-75
2022/04/06 00:17:39;;;;;;;4.97;4.60;;;9.10;99.90;;;;;;4160867;28;20062;-75
2022/04/06 00:19:41;;;;;;;4.80;4.40;;;9.10;99.90;;;;;;4162589;28;20789;-75
2022/04/06 00:21:43;;;;;;;4.50;4.10;;;9.10;99.90;;;;;;4151085;28;20058;-75
2022/04/06 00:23:45;;;;;;;5.15;4.22;;;9.10;99.90;;;;;;4160182;28;20773;-75
2022/04/06 00:25:47;;;;;;;4.32;4.03;;;9.10;99.90;;;;;;4160797;28;20168;-75
2022/04/06 00:27:48;;;;;;;4.75;4.28;;;9.10;99.90;;;;;;4154074;28;20177;-75
2022/04/06 00:29:51;;;;;;;4.80;4.30;;;9.20;99.90;;;;;;4153819;28;20069;-75
2022/04/06 00:31:52;;;;;;;4.97;4.30;;;9.20;99.90;;;;;;4158621;28;20177;-75
2022/04/06 00:33:55;;;;;;;4.85;4.35;;;9.10;99.90;;;;;;4159644;28;21167;-75
2022/04/06 00:35:57;;;;;;;4.28;3.97;;;9.10;99.90;;;;;;4160234;28;20054;-75
2022/04/06 00:38:00;;;;;;;4.53;4.18;;;9.20;99.90;;;;;;4157661;28;20062;-75
2022/04/06 00:40:04;;;;;;;4.63;4.28;;;9.20;99.90;;;;;;4154338;28;20636;-75
2022/04/06 00:42:06;;;;;;;5.60;4.78;;;9.20;99.90;;;;;;4158316;28;20058;-75
2022/04/06 00:44:17;;;;;;;4.10;3.75;;;9.20;99.90;;;;;;4158943;28;20179;-75
2022/04/06 00:46:18;;;;;;;5.53;4.45;;;9.20;99.90;;;;;;4163358;28;20058;-77
2022/04/06 00:48:20;;;;;;;4.25;3.85;;;9.20;99.90;;;;;;4154306;28;20132;-75
2022/04/06 00:50:23;;;;;;;4.57;4.18;;;9.10;99.90;;;;;;4154739;28;20164;-75
2022/04/06 00:52:25;;;;;;;4.85;4.45;;;9.10;99.90;;;;;;4157227;28;20086;-75
2022/04/06 00:54:32;;;;;;;5.38;4.68;;;9.10;99.90;;;;;;4162293;28;20097;-75
2022/04/06 00:56:34;;;;;;;5.20;4.80;;;9.10;99.90;;;;;;4157111;28;20088;-75
2022/04/06 00:58:36;;;;;;;4.95;4.43;;;9.10;99.90;;;;;;4154957;28;20069;-75
2022/04/06 01:00:38;;;;;;;4.35;4.03;;;9.10;99.90;;;;;;4156913;28;20090;-75
2022/04/06 01:02:40;;;;;;;4.43;4.05;;;9.10;99.90;;;;;;4155173;28;20726;-75
2022/04/06 01:04:42;;;;;;;5.68;4.88;;;9.10;99.90;;;;;;4160018;28;20054;-75
2022/04/06 01:06:51;;;;;;;5.50;4.97;;;9.10;99.90;;;;;;4155572;28;20616;-75
2022/04/06 01:08:53;;;;;;;4.57;4.28;;;9.10;99.90;;;;;;4159284;28;20088;-75
2022/04/06 01:10:55;;;;;;;7.03;4.45;;;9.10;99.90;;;;;;4159809;28;20058;-75
2022/04/06 01:12:57;;;;;;;4.97;4.57;;;9.10;99.90;;;;;;4160892;28;20746;-74
2022/04/06 01:14:59;;;;;;;4.05;3.75;;;9.10;99.90;;;;;;4157505;28;20161;-74
2022/04/06 01:17:04;;;;;;;6.63;4.65;;;9.10;99.90;;;;;;4160459;28;20048;-75
2022/04/06 01:19:06;;;;;;;4.53;4.20;;;9.10;99.90;;;;;;4162194;28;20101;-74
2022/04/06 01:21:13;;;;;;;4.30;3.90;;;9.10;99.90;;;;;;4162768;28;20080;-75
2022/04/06 01:23:15;;;;;;;5.22;4.47;;;9.10;99.90;;;;;;4161395;28;20062;-75
2022/04/06 01:25:16;;;;;;;5.18;4.68;;;9.10;99.90;;;;;;4161060;28;20066;-74
2022/04/06 01:27:18;;;;;;;6.10;4.47;;;9.10;99.90;;;;;;4162951;28;20062;-74
2022/04/06 01:29:20;;;;;;;5.10;4.70;;;9.10;99.90;;;;;;4163227;28;20068;-75
2022/04/06 01:31:22;;;;;;;4.90;4.47;;;9.10;99.90;;;;;;4160019;28;20901;-74
2022/04/06 01:33:24;;;;;;;4.88;4.47;;;9.10;99.90;;;;;;4159719;28;20054;-74
2022/04/06 01:35:26;;;;;;;6.82;5.10;;;9.10;99.90;;;;;;4161629;28;20802;-75
2022/04/06 01:37:28;;;;;;;5.18;4.78;;;9.10;99.90;;;;;;4164429;28;20054;-74
2022/04/06 01:39:35;;;;;;;4.60;4.20;;;9.10;99.90;;;;;;4161499;28;20064;-75
2022/04/06 01:41:37;;;;;;;5.55;5.00;;;9.10;99.90;;;;;;4162096;28;20069;-74
2022/04/06 01:43:42;;;;;;;5.45;4.93;;;9.10;99.90;;;;;;4162919;28;20689;-75
2022/04/06 01:45:44;;;;;;;4.75;4.35;;;9.10;99.90;;;;;;4159540;28;20058;-75
2022/04/06 01:47:46;;;;;;;6.65;4.25;;;9.10;99.90;;;;;;4160610;28;20058;-75
2022/04/06 01:52:12;;;;;;;4.80;4.40;;;9.10;99.90;;;;;;4157534;28;20058;-74
2022/04/06 01:54:14;;;;;;;4.72;4.43;;;9.10;99.90;;;;;;4162189;28;20861;-74
2022/04/06 01:56:15;;;;;;;6.15;4.35;;;9.10;99.90;;;;;;4164814;28;20054;-75
2022/04/06 01:58:17;;;;;;;5.82;5.25;;;9.00;99.90;;;;;;4158617;28;20054;-75
2022/04/06 02:00:19;;;;;;;5.05;4.65;;;9.00;99.90;;;;;;4152139;28;20061;-74
2022/04/06 02:02:23;;;;;;;5.22;4.72;;;9.00;99.90;;;;;;4155083;28;20136;-74
2022/04/06 02:04:25;;;;;;;4.07;3.78;;;9.00;99.90;;;;;;4159545;28;20046;-74
2022/04/06 02:06:28;;;;;;;4.68;4.20;;;9.10;99.90;;;;;;4155186;28;20062;-74
2022/04/06 02:08:29;;;;;;;4.88;4.47;;;9.10;99.90;;;;;;4152278;28;20064;-75
2022/04/06 02:10:31;;;;;;;5.63;4.68;;;9.10;99.90;;;;;;4155318;28;20054;-75
2022/04/06 02:12:33;;;;;;;5.22;4.60;;;9.10;99.90;;;;;;4156652;28;20064;-76
2022/04/06 02:14:35;;;;;;;7.18;4.40;;;9.10;99.90;;;;;;4154301;28;20139;-75
2022/04/06 02:16:37;;;;;;;5.10;4.65;;;9.10;99.90;;;;;;4160932;28;20217;-75
2022/04/06 02:18:39;;;;;;;5.00;4.60;;;9.10;99.90;;;;;;4151577;28;20089;-75
2022/04/06 02:20:40;;;;;;;8.23;4.90;;;9.10;99.90;;;;;;4157683;28;20058;-76
2022/04/06 02:22:43;;;;;;;5.35;4.88;;;9.10;99.90;;;;;;4152486;28;20057;-75
2022/04/06 02:24:44;;;;;;;5.35;4.95;;;9.10;99.90;;;;;;4161277;28;20769;-75
2022/04/06 02:26:46;;;;;;;5.28;4.78;;;9.00;99.90;;;;;;4152808;28;20109;-75
2022/04/06 02:28:48;;;;;;;4.90;4.07;;;9.00;99.90;;;;;;4157808;28;20173;-76
2022/04/06 02:30:49;;;;;;;5.00;4.57;;;9.00;99.90;;;;;;4158312;28;20055;-75
2022/04/06 02:32:51;;;;;;;6.10;4.68;;;9.00;99.90;;;;;;4154380;28;20068;-75
2022/04/06 02:34:53;;;;;;;5.93;5.15;;;9.00;99.90;;;;;;4154075;28;20142;-75
2022/04/06 02:36:55;;;;;;;4.78;4.40;;;9.00;99.90;;;;;;4152964;28;20130;-75
2022/04/06 02:38:56;;;;;;;7.40;6.03;;;9.00;99.90;;;;;;4156076;28;20058;-75
2022/04/06 02:40:58;;;;;;;5.45;4.95;;;8.90;99.90;;;;;;4158310;28;20684;-75
2022/04/06 02:43:00;;;;;;;4.55;4.25;;;8.90;99.90;;;;;;4155429;28;20061;-75
2022/04/06 02:45:02;;;;;;;5.35;4.85;;;8.90;99.90;;;;;;4154819;28;20136;-75
2022/04/06 02:47:04;;;;;;;6.32;4.97;;;8.90;99.90;;;;;;4159259;28;20080;-75
2022/04/06 02:49:06;;;;;;;8.50;6.03;;;9.00;99.90;;;;;;4163102;28;20054;-75
2022/04/06 02:51:07;;;;;;;5.45;4.95;;;9.00;99.90;;;;;;4161455;28;20093;-75
2022/04/06 02:53:09;;;;;;;5.68;4.85;;;9.00;99.90;;;;;;4160724;28;20042;-75
2022/04/06 02:55:12;;;;;;;5.53;5.03;;;9.00;99.90;;;;;;4162740;28;20061;-75
2022/04/06 02:57:15;;;;;;;5.10;4.57;;;9.00;99.90;;;;;;4163245;28;20168;-75
2022/04/06 02:59:16;;;;;;;5.70;4.75;;;9.00;99.90;;;;;;4161284;28;20057;-75
2022/04/06 03:01:18;;;;;;;4.85;4.45;;;9.00;99.90;;;;;;4158158;28;20058;-75
2022/04/06 03:03:21;;;;;;;7.10;5.43;;;9.00;99.90;;;;;;4161014;28;20084;-75
2022/04/06 03:05:24;;;;;;;6.97;5.03;;;9.00;99.90;;;;;;4161657;28;20057;-75
2022/04/06 03:07:26;;;;;;;5.90;4.88;;;9.00;99.90;;;;;;4163235;28;20068;-75
2022/04/06 03:09:28;;;;;;;5.70;5.20;;;9.00;99.90;;;;;;4161438;28;20084;-75
2022/04/06 03:11:29;;;;;;;8.35;5.63;;;8.90;99.90;;;;;;4158408;28;20058;-75
2022/04/06 03:13:31;;;;;;;4.97;4.50;;;8.90;99.90;;;;;;4159702;28;20092;-75
2022/04/06 03:15:33;;;;;;;5.50;5.00;;;8.90;99.90;;;;;;4163411;28;20136;-75
2022/04/06 03:17:36;;;;;;;7.30;5.30;;;8.90;99.90;;;;;;4155853;28;20200;-75
2022/04/06 03:19:37;;;;;;;6.85;5.70;;;8.90;99.90;;;;;;4155119;28;20185;-75
2022/04/06 03:21:39;;;;;;;4.95;4.55;;;8.90;99.90;;;;;;4152863;28;20054;-75
2022/04/06 03:23:41;;;;;;;6.20;4.82;;;8.90;99.90;;;;;;4155812;28;20928;-75
2022/04/06 03:25:43;;;;;;;6.70;4.63;;;8.90;99.90;;;;;;4156319;28;21003;-75
2022/04/06 03:27:44;;;;;;;6.30;5.60;;;8.90;99.90;;;;;;4153018;28;20057;-75
2022/04/06 03:29:46;;;;;;;5.80;5.13;;;8.90;99.90;;;;;;4151271;28;20053;-75
2022/04/06 03:31:48;;;;;;;6.13;5.53;;;8.90;99.90;;;;;;4153971;28;20050;-75
2022/04/06 03:33:50;;;;;;;4.90;4.50;;;9.00;99.90;;;;;;4155837;28;20073;-75
2022/04/06 03:35:52;;;;;;;6.78;5.03;;;8.90;99.90;;;;;;4155357;28;20130;-75
2022/04/06 03:37:54;;;;;;;5.43;4.93;;;8.90;99.90;;;;;;4152388;28;20081;-75
2022/04/06 03:39:55;;;;;;;5.72;5.22;;;8.90;99.90;;;;;;4162957;28;20064;-75
2022/04/06 03:41:57;;;;;;;5.68;5.05;;;8.90;99.90;;;;;;4157787;28;20058;-73
2022/04/06 03:43:59;;;;;;;7.13;4.63;;;8.90;99.90;;;;;;4154975;28;20133;-73
2022/04/06 03:46:00;;;;;;;5.55;4.85;;;9.00;99.90;;;;;;4154320;28;20093;-73
2022/04/06 03:48:02;;;;;;;5.88;4.60;;;9.00;99.90;;;;;;4150238;28;20856;-73
2022/04/06 03:50:05;;;;;;;7.07;5.22;;;9.00;99.90;;;;;;4160032;28;20864;-74
2022/04/06 03:52:07;;;;;;;5.53;5.03;;;9.00;99.90;;;;;;4162801;28;20203;-73
2022/04/06 03:54:09;;;;;;;5.00;4.60;;;9.00;99.90;;;;;;4161167;28;20777;-73
2022/04/06 03:56:10;;;;;;;5.22;4.47;;;9.00;99.90;;;;;;4160397;28;20853;-73
2022/04/06 03:58:12;;;;;;;5.13;3.97;;;9.00;99.90;;;;;;4158375;28;20065;-74
2022/04/06 04:00:15;;;;;;;4.95;4.45;;;9.00;99.90;;;;;;4162524;28;20157;-74
2022/04/06 04:02:16;;;;;;;6.50;4.90;;;9.00;99.90;;;;;;4161207;28;20050;-73
2022/04/06 04:04:18;;;;;;;7.85;5.00;;;9.00;99.90;;;;;;4159835;28;20059;-73
2022/04/06 04:06:20;;;;;;;4.47;4.07;;;9.00;99.90;;;;;;4156617;28;20064;-73
2022/04/06 04:08:22;;;;;;;5.35;4.93;;;9.00;99.90;;;;;;4159820;28;20088;-73
2022/04/06 04:10:24;;;;;;;4.75;4.35;;;9.00;99.90;;;;;;4163080;28;20052;-73
2022/04/06 04:12:26;;;;;;;6.18;4.47;;;9.00;99.90;;;;;;4159419;28;20120;-74
2022/04/06 04:14:31;;;;;;;4.88;4.47;;;9.00;99.90;;;;;;4159577;28;20160;-73
2022/04/06 04:16:37;;;;;;;4.90;4.25;;;9.00;99.90;;;;;;4160107;28;20105;-73
2022/04/06 04:18:39;;;;;;;4.78;4.38;;;9.00;99.90;;;;;;4160274;28;20054;-73
2022/04/06 04:20:45;;;;;;;4.97;4.05;;;9.00;99.90;;;;;;4161126;28;20058;-74
2022/04/06 04:22:47;;;;;;;4.65;4.25;;;9.00;99.90;;;;;;4158650;28;20815;-74
2022/04/06 04:24:49;;;;;;;5.55;4.18;;;9.00;99.90;;;;;;4157241;28;20058;-74
2022/04/06 04:26:51;;;;;;;5.40;4.88;;;9.00;99.90;;;;;;4160909;28;20084;-74
2022/04/06 04:28:53;;;;;;;5.85;4.45;;;9.00;99.90;;;;;;4162657;28;20897;-74
2022/04/06 04:30:54;;;;;;;4.72;4.18;;;9.00;99.90;;;;;;4158656;28;20116;-74
2022/04/06 04:32:56;;;;;;;5.10;4.22;;;9.00;99.90;;;;;;4161020;28;20069;-74
2022/04/06 04:35:00;;;;;;;4.43;4.13;;;9.00;99.90;;;;;;4157936;28;20069;-74
2022/04/06 04:37:01;;;;;;;5.57;4.45;;;9.00;99.90;;;;;;4162186;28;20800;-75
2022/04/06 04:39:04;;;;;;;4.85;4.43;;;8.90;99.90;;;;;;4161093;28;20061;-74
2022/04/06 04:41:08;;;;;;;4.68;4.28;;;8.90;99.90;;;;;;4158741;28;20091;-74
2022/04/06 04:43:10;;;;;;;5.32;4.45;;;8.90;99.90;;;;;;4159832;28;20057;-74
2022/04/06 04:45:12;;;;;;;4.45;4.13;;;8.90;99.90;;;;;;4160200;28;20152;-74
2022/04/06 04:47:14;;;;;;;6.68;4.82;;;8.90;99.90;;;;;;4165041;28;20800;-75
2022/04/06 04:49:15;;;;;;;8.73;4.43;;;8.90;99.90;;;;;;4164737;28;20115;-75
2022/04/06 04:51:17;;;;;;;5.13;4.43;;;8.90;99.90;;;;;;4155593;28;20053;-74
2022/04/06 04:53:19;;;;;;;5.13;4.70;;;9.00;99.90;;;;;;4160970;28;20061;-75
2022/04/06 04:55:21;;;;;;;4.57;4.18;;;9.00;99.90;;;;;;4160062;28;20069;-73
2022/04/06 04:57:22;;;;;;;4.63;4.18;;;9.00;99.90;;;;;;4156855;28;20061;-73
2022/04/06 04:59:25;;;;;;;5.03;4.60;;;9.00;99.90;;;;;;4157458;28;20057;-73
2022/04/06 05:01:27;;;;;;;6.03;3.95;;;9.00;99.90;;;;;;4155482;28;20809;-73
2022/04/06 05:03:29;;;;;;;4.97;4.60;;;9.10;99.90;;;;;;4156946;28;20058;-73
2022/04/06 05:05:30;;;;;;;5.88;4.55;;;9.10;99.90;;;;;;4161418;28;20064;-73
2022/04/06 05:07:37;;;;;;;5.20;4.70;;;9.10;99.90;;;;;;4161095;28;20064;-73
2022/04/06 05:09:39;;;;;;;5.05;4.57;;;9.10;99.90;;;;;;4155389;28;20066;-73
2022/04/06 05:11:40;;;;;;;6.28;5.05;;;9.10;99.90;;;;;;4156829;28;20201;-73
2022/04/06 05:13:43;;;;;;;5.68;5.18;;;9.00;99.90;;;;;;4160424;28;20145;-73
2022/04/06 05:15:45;;;;;;;4.53;4.13;;;9.10;99.90;;;;;;4161689;28;20064;-73
2022/04/06 05:17:47;;;;;;;5.35;4.95;;;9.10;99.90;;;;;;4155189;28;20616;-73
2022/04/06 05:19:48;;;;;;;5.38;4.88;;;9.20;99.90;;;;;;4159137;28;20858;-73
2022/04/06 05:21:50;;;;;;;5.82;5.15;;;9.10;99.90;;;;;;4159738;28;20750;-73
2022/04/06 05:23:52;;;;;;;5.38;4.93;;;9.10;99.90;;;;;;4164551;28;20761;-73
2022/04/06 05:25:53;;;;;;;9.98;6.60;;;9.20;99.90;;;;;;4157551;28;20161;-73
2022/04/06 05:27:56;;;;;;;11.15;7.03;;;9.20;99.90;;;;;;4162264;28;20064;-73
2022/04/06 05:29:58;;;;;;;11.80;7.82;;;9.20;99.90;;;;;;4163544;28;20065;-73
2022/04/06 05:32:00;;;;;;;10.57;8.32;;;9.20;99.90;;;;;;4162729;28;20058;-73
2022/04/06 05:34:01;;;;;;;13.13;7.80;;;9.20;99.90;;;;;;4163331;28;20301;-73
2022/04/06 05:36:03;;;;;;;11.35;7.20;;;9.20;99.90;;;;;;4159014;28;20878;-73
2022/04/06 05:38:05;;;;;;;11.07;6.50;;;9.20;99.90;;;;;;4163360;28;20152;-73
2022/04/06 05:40:08;;;;;;;6.15;5.45;;;9.30;99.90;;;;;;4160956;28;21117;-73
2022/04/06 05:42:12;;;;;;;6.03;5.53;;;9.30;99.90;;;;;;4161150;28;20057;-73
2022/04/06 05:44:13;;;;;;;8.43;6.05;;;9.30;99.90;;;;;;4162117;28;20069;-73
2022/04/06 05:46:15;;;;;;;8.98;5.93;;;9.30;99.90;;;;;;4162788;28;20053;-73
2022/04/06 05:48:17;;;;;;;6.03;4.68;;;9.40;99.90;;;;;;4163374;28;20053;-73
2022/04/06 05:50:18;;;;;;;5.95;5.45;;;9.40;99.90;;;;;;4157720;28;20093;-74
2022/04/06 05:52:20;;;;;;;7.68;5.03;;;9.40;99.90;;;;;;4155058;28;20060;-74
2022/04/06 05:54:22;;;;;;;5.78;5.00;;;9.40;99.90;;;;;;4154865;28;20064;-74
2022/04/06 05:56:23;;;;;;;5.18;4.75;;;9.50;99.90;;;;;;4159150;28;20068;-74
2022/04/06 05:58:25;;;;;;;5.88;5.38;;;9.50;99.90;;;;;;4157844;28;20061;-74
2022/04/06 06:00:27;;;;;;;5.47;4.97;;;9.50;99.90;;;;;;4159880;28;20054;-76
2022/04/06 06:02:29;;;;;;;6.30;4.72;;;9.50;99.90;;;;;;4151714;28;20054;-74
2022/04/06 06:04:30;;;;;;;5.20;4.63;;;9.50;99.90;;;;;;4164805;28;20180;-75
2022/04/06 06:06:32;;;;;;;5.40;4.90;;;9.50;99.90;;;;;;4167180;28;21157;-74
2022/04/06 06:08:34;;;;;;;5.45;4.95;;;9.50;99.90;;;;;;4160246;28;20061;-74
2022/04/06 06:10:37;;;;;;;5.60;5.07;;;9.50;99.90;;;;;;4158540;28;20069;-74
2022/04/06 06:12:39;;;;;;;5.47;4.97;;;9.60;99.90;;;;;;4163227;28;20061;-74
2022/04/06 06:14:41;;;;;;;5.07;4.68;;;9.60;99.90;;;;;;4159180;28;20849;-76
2022/04/06 06:16:45;;;;;;;7.03;5.07;;;9.60;99.90;;;;;;4162084;28;20069;-74
2022/04/06 06:18:46;;;;;;;5.10;4.70;;;9.70;99.90;;;;;;4157739;28;20062;-74
2022/04/06 06:20:48;;;;;;;7.22;4.85;;;9.70;99.90;;;;;;4149150;28;20812;-75
2022/04/06 06:22:50;;;;;;;7.05;4.75;;;9.70;99.90;;;;;;4160556;28;20065;-75
2022/04/06 06:24:51;;;;;;;5.10;4.57;;;9.70;99.90;;;;;;4157818;28;20064;-74
2022/04/06 06:26:54;;;;;;;4.82;4.28;;;9.70;99.90;;;;;;4159680;28;20097;-75
2022/04/06 06:28:56;;;;;;;8.50;5.15;;;9.70;99.90;;;;;;4161271;28;20959;-75
2022/04/06 06:30:58;;;;;;;4.47;4.07;;;9.70;99.90;;;;;;4158439;28;20049;-74
2022/04/06 06:33:00;;;;;;;4.63;4.20;;;9.80;99.90;;;;;;4162897;28;20062;-74
2022/04/06 06:35:02;;;;;;;4.93;4.38;;;9.80;99.90;;;;;;4161823;28;20149;-74
2022/04/06 06:37:03;;;;;;;5.93;4.68;;;9.80;99.90;;;;;;4160362;28;20062;-74
2022/04/06 06:39:05;;;;;;;7.78;4.63;;;9.80;99.90;;;;;;4154942;28;20066;-74
2022/04/06 06:41:07;;;;;;;5.70;4.45;;;9.80;99.90;;;;;;4154070;28;20055;-74
2022/04/06 06:43:09;;;;;;;4.97;4.57;;;9.80;99.90;;;;;;4157322;28;20769;-74
2022/04/06 06:45:11;;;;;;;5.32;4.10;;;9.90;99.90;;;;;;4153892;28;20054;-74
2022/04/06 06:47:13;;;;;;;4.72;3.85;;;9.90;99.90;;;;;;4154114;28;20105;-74
2022/04/06 06:49:16;;;;;;;4.90;4.45;;;10.00;99.90;;;;;;4153705;28;20695;-74
2022/04/06 06:51:17;;;;;;;6.45;4.45;;;10.00;99.90;;;;;;4160244;28;20068;-74
2022/04/06 06:53:19;;;;;;;4.30;3.90;;;9.90;99.90;;;;;;4159974;28;20825;-74
2022/04/06 06:55:22;;;;;;;7.00;4.40;;;9.90;99.90;;;;;;4151971;28;20069;-74
2022/04/06 06:57:24;;;;;;;4.43;4.05;;;9.90;99.90;;;;;;4152986;28;21159;-74
2022/04/06 06:59:25;;;;;;;4.75;3.60;;;10.00;99.90;;;;;;4160286;28;20105;-74
2022/04/06 07:01:27;;;;;;;7.32;5.03;;;10.00;99.90;;;;;;4156753;28;20838;-74
2022/04/06 07:03:29;;;;;;;6.82;3.50;;;10.00;99.90;;;;;;4157473;28;20042;-74
2022/04/06 07:05:31;;;;;;;3.95;3.65;;;10.00;99.90;;;;;;4156902;28;20777;-74
2022/04/06 07:07:32;;;;;;;3.92;3.53;;;10.00;99.90;;;;;;4152141;28;20121;-74
2022/04/06 07:09:34;;;;;;;3.50;3.30;;;10.10;99.90;;;;;;4156715;28;20058;-74
2022/04/06 07:11:36;;;;;;;3.70;3.22;;;10.10;99.90;;;;;;4153028;28;20962;-74
2022/04/06 07:13:37;;;;;;;4.20;3.53;;;10.10;99.90;;;;;;4151675;28;20062;-74
2022/04/06 07:15:39;;;;;;;4.43;2.95;;;10.20;99.90;;;;;;4151694;28;20967;-74
2022/04/06 07:17:41;;;;;;;3.92;3.08;;;10.20;99.90;;;;;;4156581;28;20054;-74
2022/04/06 07:19:45;;;;;;;4.03;2.83;;;10.20;99.90;;;;;;4159220;28;20968;-74
2022/04/06 07:21:46;;;;;;;2.95;2.75;;;10.40;99.90;;;;;;4156359;28;20069;-74
2022/04/06 07:23:48;;;;;;;6.22;2.88;;;10.40;99.90;;;;;;4154323;28;20070;-75
2022/04/06 07:25:50;;;;;;;3.40;3.10;;;10.50;99.90;;;;;;4156423;28;20085;-75
2022/04/06 07:27:51;;;;;;;3.30;2.80;;;10.60;99.90;;;;;;4157209;28;20358;-74
2022/04/06 07:29:53;;;;;;;3.13;2.92;;;10.60;99.90;;;;;;4153004;28;20054;-74
2022/04/06 07:31:55;;;;;;;3.63;3.33;;;10.60;99.80;;;;;;4154146;28;20909;-74
2022/04/06 07:33:56;;;;;;;2.92;2.10;;;10.70;99.20;;;;;;4156492;28;21074;-75
2022/04/06 07:35:58;;;;;;;2.75;2.55;;;10.70;99.60;;;;;;4157877;28;20062;-74
2022/04/06 07:38:00;;;;;;;4.38;2.20;;;10.70;99.30;;;;;;4157158;28;20042;-75
2022/04/06 07:40:02;;;;;;;3.03;2.47;;;10.70;99.00;;;;;;4151225;28;20058;-74
2022/04/06 07:42:04;;;;;;;2.15;1.95;;;10.70;98.90;;;;;;4155185;28;20065;-75
2022/04/06 07:44:06;;;;;;;2.33;2.13;;;10.80;98.70;;;;;;4157480;28;20054;-75
2022/04/06 07:46:07;;;;;;;2.38;2.10;;;10.80;98.20;;;;;;4156673;28;20880;-75
2022/04/06 07:48:09;;;;;;;2.08;1.90;;;10.80;98.10;;;;;;4158195;28;20097;-75
2022/04/06 07:50:15;;;;;;;3.65;2.15;;;10.90;97.60;;;;;;4152100;28;20220;-74
2022/04/06 07:52:21;;;;;;;1.80;1.70;;;11.00;97.70;;;;;;4151638;28;20094;-74
2022/04/06 07:54:23;;;;;;;2.10;1.58;;;11.10;97.40;;;;;;4156306;28;20057;-75
2022/04/06 07:56:25;;;;;;;2.05;1.88;;;11.00;96.90;;;;;;4156337;28;20050;-75
2022/04/06 07:58:26;;;;;;;3.13;1.42;;;11.10;96.80;;;;;;4150071;28;20064;-75
2022/04/06 08:00:33;;;;;;;2.95;1.48;;;11.20;96.30;;;;;;4152875;28;20101;-74
2022/04/06 08:02:35;;;;;;;2.83;1.95;;;11.20;96.40;;;;;;4156075;28;20101;-76
2022/04/06 08:04:36;;;;;;;2.22;1.65;;;11.20;95.80;;;;;;4157572;28;20154;-75
2022/04/06 08:06:38;;;;;;;1.83;1.73;;;11.20;95.60;;;;;;4156106;28;20064;-75
2022/04/06 08:08:40;;;;;;;2.45;1.80;;;11.10;95.90;;;;;;4150892;28;20069;-74
2022/04/06 08:10:41;;;;;;;1.63;1.52;;;11.10;96.10;;;;;;4155144;28;20695;-75
2022/04/06 08:12:43;;;;;;;2.88;1.33;;;11.20;95.80;;;;;;4157879;28;20172;-75
2022/04/06 08:14:48;;;;;;;3.42;1.65;;;11.20;95.90;;;;;;4154203;28;20058;-75
2022/04/06 08:16:50;;;;;;;1.52;1.38;;;11.20;95.70;;;;;;4161681;28;20858;-74
2022/04/06 08:18:52;;;;;;;1.15;1.05;;;11.30;95.50;;;;;;4153476;28;20085;-75
2022/04/06 08:20:54;;;;;;;1.42;1.30;;;11.40;95.70;;;;;;4158359;28;20675;-75
2022/04/06 08:22:56;;;;;;;1.92;1.55;;;11.50;95.20;;;;;;4151327;28;20063;-75
2022/04/06 08:24:58;;;;;;;1.77;1.67;;;11.50;94.70;;;;;;4161385;28;20057;-75
2022/04/06 08:27:15;;;;;;;25.48;3.63;;;11.60;94.50;;;;;;4156542;28;20770;-75
2022/04/06 08:29:17;;;;;;;1.60;1.48;;;11.60;94.70;;;;;;4157718;28;20054;-74
2022/04/06 08:31:19;;;;;;;1.40;1.05;;;11.50;94.00;;;;;;4151766;28;20073;-74
2022/04/06 08:33:21;;;;;;;2.78;1.08;;;11.50;94.10;;;;;;4162528;28;20058;-74
2022/04/06 08:35:28;;;;;;;4.82;1.10;;;11.40;93.80;;;;;;4157646;28;20058;-76
2022/04/06 08:37:31;;;;;;;1.40;1.30;;;11.40;94.00;;;;;;4155154;28;20104;-75
2022/04/06 08:39:32;;;;;;;2.28;1.30;;;11.30;94.10;;;;;;4158084;28;20057;-74
2022/04/06 08:41:35;;;;;;;2.25;0.60;;;11.40;93.90;;;;;;4160746;28;20060;-76
2022/04/06 08:43:37;;;;;;;0.85;0.70;;;11.40;93.60;;;;;;4154666;28;20929;-75
2022/04/06 08:45:39;;;;;;;0.60;0.60;;;11.60;92.60;;;;;;4153816;28;20062;-74
2022/04/06 08:47:45;;;;;;;0.63;0.63;;;11.60;92.80;;;;;;4156151;28;20878;-75
2022/04/06 08:49:48;;;;;;;1.13;0.60;;;11.60;92.50;;;;;;4160474;28;20157;-75
2022/04/06 08:51:53;;;;;;;1.45;0.88;;;11.50;92.80;;;;;;4155145;28;20850;-75
2022/04/06 08:53:55;;;;;;;0.35;0.35;;;11.60;92.60;;;;;;4167893;28;20943;-75
2022/04/06 08:55:56;;;;;;;0.70;0.60;;;11.60;92.10;;;;;;4156283;28;20089;-75
2022/04/06 08:57:59;;;;;;;0.60;0.57;;;11.70;92.00;;;;;;4159798;28;20080;-75
2022/04/06 09:00:02;;;;;;;2.60;0.80;;;11.90;92.00;;;;;;4157538;28;20077;-75
2022/04/06 09:02:04;;;;;;;0.73;0.43;;;12.10;91.70;;;;;;4154042;28;20169;-75
2022/04/06 09:04:13;;;;;;;0.50;0.50;;;12.20;91.30;;;;;;4155618;28;20877;-76
2022/04/06 09:06:42;;;;;;;0.40;0.40;;;12.30;90.50;;;;;;4160028;28;20062;-76
2022/04/06 09:08:48;;;;;;;1.38;0.55;;;12.10;88.90;;;;;;4156430;28;20160;-74
2022/04/06 09:10:50;;;;;;;0.47;0.47;;;11.90;89.90;;;;;;4154525;28;20069;-76
2022/04/06 09:12:51;;;;;;;1.77;0.60;;;11.90;90.60;;;;;;4152669;28;20164;-75
2022/04/06 09:15:12;;;;;;;0.60;0.60;;;12.00;90.20;;;;;;4158185;28;20207;-76
2022/04/06 09:17:19;;;;;;;0.22;0.22;;;12.00;90.50;;;;;;4156768;28;21214;-75
2022/04/06 09:19:21;;;;;;;0.43;0.43;;;12.00;90.00;;;;;;4151272;28;20086;-76
2022/04/06 09:23:28;;;;;;;0.40;0.40;;;12.00;88.50;;;;;;4199461;23;41342;-86
2022/04/06 09:25:34;;;;;;;0.32;0.32;;;12.10;87.80;;;;;;4173726;28;20065;-84
2022/04/06 09:27:40;;;;;;;0.73;0.50;;;12.30;87.10;;;;;;4184865;28;20057;-85
2022/04/06 09:29:48;;;;;;;0.47;0.30;;;12.40;85.70;;;;;;4193825;28;20124;-82
2022/04/06 09:31:51;;;;;;;0.43;0.30;;;12.40;85.60;;;;;;4195799;28;20119;-82
2022/04/06 09:34:00;;;;;;;0.50;0.50;;;12.30;86.00;;;;;;4162197;28;20062;-85
2022/04/06 09:36:17;;;;;;;0.80;0.40;;;12.40;86.70;;;;;;4177789;28;20126;-84
2022/04/06 09:38:22;;;;;;;1.70;0.30;;;12.40;87.10;;;;;;4168671;28;20069;-85
2022/04/06 09:40:29;;;;;;;0.95;0.65;;;12.50;86.70;;;;;;4171890;28;20062;-80
2022/04/06 09:42:31;;;;;;;2.25;0.50;;;12.60;86.40;;;;;;4168648;28;20065;-84
2022/04/06 09:49:34;;;;;;;0.57;0.30;;;12.70;84.30;;;;;;4163135;28;20101;-85
2022/04/06 09:51:38;;;;;;;0.50;0.25;;;12.80;84.30;;;;;;4170397;28;20058;-85
2022/04/06 09:53:40;;;;;;;3.70;0.60;;;12.90;84.10;;;;;;4164744;28;20185;-84
2022/04/06 09:55:42;;;;;;;0.63;0.43;;;13.00;83.60;;;;;;4164815;28;20054;-85
2022/04/06 09:57:44;;;;;;;0.70;0.20;;;13.10;82.90;;;;;;4183814;28;20089;-83
2022/04/06 09:59:47;;;;;;;0.30;0.30;;;13.20;83.70;;;;;;4171197;28;20169;-82
2022/04/06 10:01:51;;;;;;;1.20;0.77;;;13.30;81.30;;;;;;4165872;28;20896;-83
2022/04/06 10:04:02;;;;;;;1.38;0.30;;;13.30;80.50;;;;;;4166212;28;20041;-86
2022/04/06 10:06:03;;;;;;;0.20;0.20;;;13.30;80.90;;;;;;4168665;28;20956;-80
2022/04/06 10:08:07;;;;;;;3.88;0.45;;;13.20;80.80;;;;;;4167806;28;20747;-84
2022/04/06 10:10:12;;;;;;;0.38;0.38;;;13.20;80.00;;;;;;4170153;28;20054;-83
2022/04/06 10:12:16;;;;;;;0.57;0.30;;;13.00;81.10;;;;;;4171162;28;20072;-84
2022/04/06 10:14:19;;;;;;;2.63;0.30;;;13.00;81.70;;;;;;4166511;28;20050;-84
2022/04/06 10:16:23;;;;;;;0.30;0.30;;;13.00;81.50;;;;;;4169569;28;20042;-85
2022/04/06 10:18:32;;;;;;;0.30;0.30;;;13.00;82.10;;;;;;4181328;28;20081;-83
2022/04/06 10:20:51;;;;;;;1.13;1.00;;;13.10;83.50;;;;;;4172816;28;20181;-83
2022/04/06 10:23:09;;;;;;;0.40;0.40;;;13.20;81.30;;;;;;4166713;28;20801;-83
2022/04/06 10:25:51;;;;;;;2.15;0.20;;;13.30;80.40;;;;;;4168545;28;20144;-82
2022/04/06 10:27:55;;;;;;;1.85;0.82;;;13.60;81.50;;;;;;4166989;28;20053;-85
2022/04/06 10:30:18;;;;;;;0.45;0.40;;;13.70;79.30;;;;;;4171580;28;20868;-85
2022/04/06 10:32:36;;;;;;;0.20;0.20;;;13.70;79.90;;;;;;4168163;28;20042;-84
2022/04/06 10:34:39;;;;;;;0.20;0.20;;;13.70;78.90;;;;;;4170023;28;20136;-83
2022/04/06 10:36:42;;;;;;;0.40;0.40;;;13.40;78.00;;;;;;4171139;28;20048;-84
2022/04/06 10:39:09;;;;;;;0.88;0.40;;;13.20;79.00;;;;;;4170869;28;20049;-84
2022/04/06 10:41:11;;;;;;;0.93;0.85;;;13.10;78.50;;;;;;4164633;28;20058;-84
2022/04/06 10:43:40;;;;;;;0.38;0.35;;;13.30;79.60;;;;;;4168361;28;20115;-86
2022/04/06 10:45:45;;;;;;;0.20;0.20;;;13.70;78.00;;;;;;4175056;28;20105;-83
2022/04/06 10:48:12;;;;;;;0.70;0.45;;;13.90;78.40;;;;;;4175365;28;20785;-83
2022/04/06 10:50:13;;;;;;;0.30;0.30;;;14.40;78.30;;;;;;4173591;28;20193;-85
2022/04/06 10:52:23;;;;;;;0.88;0.40;;;14.80;76.20;;;;;;4169096;28;20122;-84
2022/04/06 10:54:27;;;;;;;0.63;0.40;;;15.00;73.80;;;;;;4172466;28;20275;-82
2022/04/06 10:56:49;;;;;;;0.75;0.30;;;14.90;71.90;;;;;;4165877;28;20081;-84